sensor_id;sensor_type;location;lat;lon;timestamp;pressure;altitude;pressure_sealevel;temperature;humidity
53270;BME280;39159;45.634;9.420;2024-03-08T00:00:03;98824.44;;;8.50;100.00
53270;BME280;39159;45.634;9.420;2024-03-08T00:02:36;98814.06;;;8.52;100.00
53270;BME280;39159;45.634;9.420;2024-03-08T00:05:06;98826.25;;;8.55;100.00
53270;BME280;39159;45.634;9.420;2024-03-08T00:07:31;98829.88;;;8.50;100.00
53270;BME280;39159;45.634;9.420;2024-03-08T00:09:57;98823.13;;;8.47;100.00
53270;BME280;39159;45.634;9.420;2024-03-08T00:12:22;98821.59;;;8.41;100.00
53270;BME280;39159;45.634;9.420;2024-03-08T00:14:48;98824.38;;;8.36;100.00
53270;BME280;39159;45.634;9.420;2024-03-08T00:17:13;98822.97;;;8.39;100.00
53270;BME280;39159;45.634;9.420;2024-03-08T00:19:40;98815.38;;;8.36;100.00
53270;BME280;39159;45.634;9.420;2024-03-08T00:22:06;98825.97;;;8.37;100.00
53270;BME280;39159;45.634;9.420;2024-03-08T00:24:33;98833.84;;;8.39;100.00
53270;BME280;39159;45.634;9.420;2024-03-08T00:26:58;98819.59;;;8.28;100.00
53270;BME280;39159;45.634;9.420;2024-03-08T00:29:24;98819.00;;;8.31;100.00
53270;BME280;39159;45.634;9.420;2024-03-08T00:31:49;98826.63;;;8.29;100.00
53270;BME280;39159;45.634;9.420;2024-03-08T00:34:15;98818.69;;;8.33;100.00
53270;BME280;39159;45.634;9.420;2024-03-08T00:36:41;98828.69;;;8.37;100.00
53270;BME280;39159;45.634;9.420;2024-03-08T00:39:06;98830.78;;;8.45;100.00
53270;BME280;39159;45.634;9.420;2024-03-08T00:41:32;98831.06;;;8.44;100.00
53270;BME280;39159;45.634;9.420;2024-03-08T00:43:58;98832.38;;;8.46;100.00
53270;BME280;39159;45.634;9.420;2024-03-08T00:46:23;98829.06;;;8.49;100.00
53270;BME280;39159;45.634;9.420;2024-03-08T00:48:49;98837.53;;;8.48;100.00
53270;BME280;39159;45.634;9.420;2024-03-08T00:51:14;98835.41;;;8.45;100.00
53270;BME280;39159;45.634;9.420;2024-03-08T00:53:41;98832.31;;;8.52;100.00
53270;BME280;39159;45.634;9.420;2024-03-08T00:56:07;98829.06;;;8.49;100.00
53270;BME280;39159;45.634;9.420;2024-03-08T00:58:36;98826.94;;;8.46;100.00
53270;BME280;39159;45.634;9.420;2024-03-08T01:01:02;98830.06;;;8.54;100.00
53270;BME280;39159;45.634;9.420;2024-03-08T01:03:27;98829.50;;;8.57;100.00
53270;BME280;39159;45.634;9.420;2024-03-08T01:05:53;98833.91;;;8.53;100.00
53270;BME280;39159;45.634;9.420;2024-03-08T01:08:19;98825.84;;;8.47;100.00
53270;BME280;39159;45.634;9.420;2024-03-08T01:10:44;98837.25;;;8.49;100.00
53270;BME280;39159;45.634;9.420;2024-03-08T01:13:10;98828.75;;;8.51;100.00
53270;BME280;39159;45.634;9.420;2024-03-08T01:15:35;98822.09;;;8.43;100.00
53270;BME280;39159;45.634;9.420;2024-03-08T01:18:01;98822.38;;;8.42;100.00
53270;BME280;39159;45.634;9.420;2024-03-08T01:20:26;98822.72;;;8.35;100.00
53270;BME280;39159;45.634;9.420;2024-03-08T01:22:52;98820.31;;;8.34;100.00
53270;BME280;39159;45.634;9.420;2024-03-08T01:25:18;98817.38;;;8.30;100.00
53270;BME280;39159;45.634;9.420;2024-03-08T01:27:43;98811.16;;;8.29;100.00
53270;BME280;39159;45.634;9.420;2024-03-08T01:30:09;98809.22;;;8.30;100.00
53270;BME280;39159;45.634;9.420;2024-03-08T01:32:35;98806.50;;;8.30;100.00
53270;BME280;39159;45.634;9.420;2024-03-08T01:35:00;98809.81;;;8.27;100.00
53270;BME280;39159;45.634;9.420;2024-03-08T01:37:26;98795.81;;;8.34;100.00
53270;BME280;39159;45.634;9.420;2024-03-08T01:39:51;98811.06;;;8.35;100.00
53270;BME280;39159;45.634;9.420;2024-03-08T01:42:17;98807.22;;;8.36;100.00
53270;BME280;39159;45.634;9.420;2024-03-08T01:44:43;98808.06;;;8.36;100.00
53270;BME280;39159;45.634;9.420;2024-03-08T01:47:10;98804.81;;;8.34;100.00
53270;BME280;39159;45.634;9.420;2024-03-08T01:49:36;98810.16;;;8.39;100.00
53270;BME280;39159;45.634;9.420;2024-03-08T01:52:03;98794.75;;;8.35;100.00
53270;BME280;39159;45.634;9.420;2024-03-08T01:54:29;98796.84;;;8.38;100.00
53270;BME280;39159;45.634;9.420;2024-03-08T01:56:56;98790.09;;;8.35;100.00
53270;BME280;39159;45.634;9.420;2024-03-08T01:59:24;98789.00;;;8.36;100.00
53270;BME280;39159;45.634;9.420;2024-03-08T02:01:54;98790.09;;;8.35;100.00
53270;BME280;39159;45.634;9.420;2024-03-08T02:04:20;98782.97;;;8.39;100.00
53270;BME280;39159;45.634;9.420;2024-03-08T02:06:46;98785.69;;;8.39;100.00
53270;BME280;39159;45.634;9.420;2024-03-08T02:09:12;98788.34;;;8.44;100.00
53270;BME280;39159;45.634;9.420;2024-03-08T02:11:37;98776.44;;;8.40;100.00
53270;BME280;39159;45.634;9.420;2024-03-08T02:14:02;98766.66;;;8.39;100.00
53270;BME280;39159;45.634;9.420;2024-03-08T02:16:29;98779.59;;;8.47;100.00
53270;BME280;39159;45.634;9.420;2024-03-08T02:18:54;98773.56;;;8.50;100.00
53270;BME280;39159;45.634;9.420;2024-03-08T02:21:20;98770.03;;;8.50;100.00
53270;BME280;39159;45.634;9.420;2024-03-08T02:23:46;98772.47;;;8.52;100.00
53270;BME280;39159;45.634;9.420;2024-03-08T02:26:11;98769.81;;;8.46;100.00
53270;BME280;39159;45.634;9.420;2024-03-08T02:28:37;98775.47;;;8.50;100.00
53270;BME280;39159;45.634;9.420;2024-03-08T02:31:03;98774.97;;;8.48;100.00
53270;BME280;39159;45.634;9.420;2024-03-08T02:33:33;98772.53;;;8.46;100.00
53270;BME280;39159;45.634;9.420;2024-03-08T02:35:59;98774.38;;;8.51;100.00
53270;BME280;39159;45.634;9.420;2024-03-08T02:38:24;98764.91;;;8.48;100.00
53270;BME280;39159;45.634;9.420;2024-03-08T02:40:51;98765.63;;;8.54;100.00
53270;BME280;39159;45.634;9.420;2024-03-08T02:43:18;98777.91;;;8.52;100.00
53270;BME280;39159;45.634;9.420;2024-03-08T02:45:44;98760.47;;;8.53;100.00
53270;BME280;39159;45.634;9.420;2024-03-08T02:48:11;98772.00;;;8.63;100.00
53270;BME280;39159;45.634;9.420;2024-03-08T02:50:36;98771.69;;;8.65;100.00
53270;BME280;39159;45.634;9.420;2024-03-08T02:53:02;98768.38;;;8.68;100.00
53270;BME280;39159;45.634;9.420;2024-03-08T02:55:28;98774.81;;;8.72;100.00
53270;BME280;39159;45.634;9.420;2024-03-08T02:57:54;98772.91;;;8.73;100.00
53270;BME280;39159;45.634;9.420;2024-03-08T03:00:20;98775.84;;;8.76;100.00
53270;BME280;39159;45.634;9.420;2024-03-08T03:02:48;98771.50;;;8.75;100.00
53270;BME280;39159;45.634;9.420;2024-03-08T03:05:14;98772.41;;;8.70;100.00
53270;BME280;39159;45.634;9.420;2024-03-08T03:07:39;98768.38;;;8.68;100.00
53270;BME280;39159;45.634;9.420;2024-03-08T03:10:05;98770.06;;;8.64;100.00
53270;BME280;39159;45.634;9.420;2024-03-08T03:12:32;98768.97;;;8.65;100.00
53270;BME280;39159;45.634;9.420;2024-03-08T03:14:59;98765.75;;;8.63;100.00
53270;BME280;39159;45.634;9.420;2024-03-08T03:17:24;98775.09;;;8.57;100.00
53270;BME280;39159;45.634;9.420;2024-03-08T03:19:51;98760.47;;;8.53;100.00
53270;BME280;39159;45.634;9.420;2024-03-08T03:22:19;98766.22;;;8.51;100.00
53270;BME280;39159;45.634;9.420;2024-03-08T03:24:45;98763.59;;;8.46;100.00
53270;BME280;39159;45.634;9.420;2024-03-08T03:27:14;98766.66;;;8.39;100.00
53270;BME280;39159;45.634;9.420;2024-03-08T03:29:41;98770.56;;;8.33;100.00
53270;BME280;39159;45.634;9.420;2024-03-08T03:32:13;98755.03;;;8.34;100.00
53270;BME280;39159;45.634;9.420;2024-03-08T03:34:40;98760.81;;;8.32;100.00
53270;BME280;39159;45.634;9.420;2024-03-08T03:37:06;98765.72;;;8.30;100.00
53270;BME280;39159;45.634;9.420;2024-03-08T03:39:33;98751.72;;;8.23;100.00
53270;BME280;39159;45.634;9.420;2024-03-08T03:42:13;98757.66;;;8.25;100.00
53270;BME280;39159;45.634;9.420;2024-03-08T03:44:40;98769.03;;;8.27;100.00
53270;BME280;39159;45.634;9.420;2024-03-08T03:47:05;98765.81;;;8.25;100.00
53270;BME280;39159;45.634;9.420;2024-03-08T03:49:32;98765.00;;;8.24;100.00
53270;BME280;39159;45.634;9.420;2024-03-08T03:51:58;98767.13;;;8.27;100.00
53270;BME280;39159;45.634;9.420;2024-03-08T03:54:23;98777.19;;;8.27;100.00
53270;BME280;39159;45.634;9.420;2024-03-08T03:56:49;98780.72;;;8.27;100.00
53270;BME280;39159;45.634;9.420;2024-03-08T03:59:18;98777.28;;;8.22;100.00
53270;BME280;39159;45.634;9.420;2024-03-08T04:01:43;98774.84;;;8.20;100.00
53270;BME280;39159;45.634;9.420;2024-03-08T04:04:09;98776.75;;;8.20;100.00
53270;BME280;39159;45.634;9.420;2024-03-08T04:06:34;98776.75;;;8.20;100.00
53270;BME280;39159;45.634;9.420;2024-03-08T04:08:59;98778.69;;;8.19;100.00
53270;BME280;39159;45.634;9.420;2024-03-08T04:11:25;98773.22;;;8.19;100.00
53270;BME280;39159;45.634;9.420;2024-03-08T04:13:50;98774.56;;;8.22;100.00
53270;BME280;39159;45.634;9.420;2024-03-08T04:16:15;98771.25;;;8.25;100.00
53270;BME280;39159;45.634;9.420;2024-03-08T04:18:41;98771.75;;;8.27;100.00
53270;BME280;39159;45.634;9.420;2024-03-08T04:21:06;98774.78;;;8.25;100.00
53270;BME280;39159;45.634;9.420;2024-03-08T04:23:32;98774.25;;;8.23;100.00
53270;BME280;39159;45.634;9.420;2024-03-08T04:25:59;98780.88;;;8.17;100.00
53270;BME280;39159;45.634;9.420;2024-03-08T04:28:24;98773.00;;;8.16;100.00
53270;BME280;39159;45.634;9.420;2024-03-08T04:30:50;98774.72;;;8.12;100.00
53270;BME280;39159;45.634;9.420;2024-03-08T04:33:16;98772.00;;;8.12;100.00
53270;BME280;39159;45.634;9.420;2024-03-08T04:35:43;98766.63;;;8.06;100.00
53270;BME280;39159;45.634;9.420;2024-03-08T04:38:11;98770.38;;;8.10;100.00
53270;BME280;39159;45.634;9.420;2024-03-08T04:40:36;98774.72;;;8.12;100.00
53270;BME280;39159;45.634;9.420;2024-03-08T04:43:02;98773.63;;;8.13;100.00
53270;BME280;39159;45.634;9.420;2024-03-08T04:45:27;98770.81;;;8.18;100.00
53270;BME280;39159;45.634;9.420;2024-03-08T04:47:53;98767.28;;;8.17;100.00
53270;BME280;39159;45.634;9.420;2024-03-08T04:50:18;98768.91;;;8.18;100.00
53270;BME280;39159;45.634;9.420;2024-03-08T04:52:44;98769.91;;;8.22;100.00
53270;BME280;39159;45.634;9.420;2024-03-08T04:55:09;98767.72;;;8.24;100.00
53270;BME280;39159;45.634;9.420;2024-03-08T04:57:35;98771.25;;;8.25;100.00
53270;BME280;39159;45.634;9.420;2024-03-08T05:00:01;98772.84;;;8.26;100.00
53270;BME280;39159;45.634;9.420;2024-03-08T05:02:26;98779.09;;;8.26;100.00
53270;BME280;39159;45.634;9.420;2024-03-08T05:04:52;98771.75;;;8.27;100.00
53270;BME280;39159;45.634;9.420;2024-03-08T05:07:17;98774.34;;;8.18;100.00
53270;BME280;39159;45.634;9.420;2024-03-08T05:09:42;98768.41;;;8.16;100.00
53270;BME280;39159;45.634;9.420;2024-03-08T05:12:08;98771.41;;;8.15;100.00
53270;BME280;39159;45.634;9.420;2024-03-08T05:14:33;98778.44;;;8.16;100.00
53270;BME280;39159;45.634;9.420;2024-03-08T05:17:00;98778.44;;;8.16;100.00
53270;BME280;39159;45.634;9.420;2024-03-08T05:19:26;98771.91;;;8.17;100.00
53270;BME280;39159;45.634;9.420;2024-03-08T05:21:51;98777.88;;;8.19;100.00
53270;BME280;39159;45.634;9.420;2024-03-08T05:24:17;98773.53;;;8.18;100.00
53270;BME280;39159;45.634;9.420;2024-03-08T05:26:43;98770.22;;;8.21;100.00
53270;BME280;39159;45.634;9.420;2024-03-08T05:29:09;98774.56;;;8.22;100.00
53270;BME280;39159;45.634;9.420;2024-03-08T05:31:47;98782.94;;;8.25;100.00
53270;BME280;39159;45.634;9.420;2024-03-08T05:34:13;98782.63;;;8.27;100.00
53270;BME280;39159;45.634;9.420;2024-03-08T05:36:42;98785.84;;;8.29;100.00
53270;BME280;39159;45.634;9.420;2024-03-08T05:39:19;98790.47;;;8.28;100.00
53270;BME280;39159;45.634;9.420;2024-03-08T05:41:45;98789.69;;;8.28;100.00
53270;BME280;39159;45.634;9.420;2024-03-08T05:44:11;98788.06;;;8.27;100.00
53270;BME280;39159;45.634;9.420;2024-03-08T05:46:37;98784.47;;;8.32;100.00
53270;BME280;39159;45.634;9.420;2024-03-08T05:49:06;98790.72;;;8.32;100.00
53270;BME280;39159;45.634;9.420;2024-03-08T05:51:32;98792.63;;;8.32;100.00
53270;BME280;39159;45.634;9.420;2024-03-08T05:54:00;98791.88;;;8.26;100.00
53270;BME280;39159;45.634;9.420;2024-03-08T05:56:26;98794.47;;;8.17;100.00
53270;BME280;39159;45.634;9.420;2024-03-08T05:58:51;98794.56;;;8.12;100.00
53270;BME280;39159;45.634;9.420;2024-03-08T06:01:17;98793.75;;;8.12;100.00
53270;BME280;39159;45.634;9.420;2024-03-08T06:03:42;98788.38;;;8.06;100.00
53270;BME280;39159;45.634;9.420;2024-03-08T06:06:13;98791.91;;;8.07;100.00
53270;BME280;39159;45.634;9.420;2024-03-08T06:08:39;98785.75;;;8.01;100.00
53270;BME280;39159;45.634;9.420;2024-03-08T06:11:05;98792.78;;;8.02;100.00
53270;BME280;39159;45.634;9.420;2024-03-08T06:13:33;98788.97;;;8.03;100.00
53270;BME280;39159;45.634;9.420;2024-03-08T06:15:59;98796.09;;;7.99;100.00
53270;BME280;39159;45.634;9.420;2024-03-08T06:18:26;98796.75;;;7.91;100.00
53270;BME280;39159;45.634;9.420;2024-03-08T06:20:51;98809.25;;;7.92;100.00
53270;BME280;39159;45.634;9.420;2024-03-08T06:23:17;98797.06;;;7.89;100.00
53270;BME280;39159;45.634;9.420;2024-03-08T06:25:44;98808.22;;;7.88;100.00
53270;BME280;39159;45.634;9.420;2024-03-08T06:28:09;98808.75;;;7.90;100.00
53270;BME280;39159;45.634;9.420;2024-03-08T06:30:35;98810.66;;;7.89;100.00
53270;BME280;39159;45.634;9.420;2024-03-08T06:33:00;98818.50;;;7.91;100.00
53270;BME280;39159;45.634;9.420;2024-03-08T06:35:25;98814.78;;;7.87;100.00
53270;BME280;39159;45.634;9.420;2024-03-08T06:37:51;98815.63;;;7.82;100.00
53270;BME280;39159;45.634;9.420;2024-03-08T06:40:16;98827.16;;;7.74;100.00
53270;BME280;39159;45.634;9.420;2024-03-08T06:42:42;98827.44;;;7.73;100.00
53270;BME280;39159;45.634;9.420;2024-03-08T06:45:08;98818.78;;;7.71;100.00
53270;BME280;39159;45.634;9.420;2024-03-08T06:47:35;98824.81;;;7.67;100.00
53270;BME280;39159;45.634;9.420;2024-03-08T06:50:01;98827.00;;;7.65;100.00
53270;BME280;39159;45.634;9.420;2024-03-08T06:52:26;98827.00;;;7.65;100.00
53270;BME280;39159;45.634;9.420;2024-03-08T06:54:51;98826.19;;;7.65;100.00
53270;BME280;39159;45.634;9.420;2024-03-08T06:57:18;98819.94;;;7.64;100.00
53270;BME280;39159;45.634;9.420;2024-03-08T06:59:43;98818.94;;;7.60;100.00
53270;BME280;39159;45.634;9.420;2024-03-08T07:02:10;98823.78;;;7.63;100.00
53270;BME280;39159;45.634;9.420;2024-03-08T07:04:35;98826.19;;;7.65;100.00
53270;BME280;39159;45.634;9.420;2024-03-08T07:07:04;98828.56;;;7.72;100.00
53270;BME280;39159;45.634;9.420;2024-03-08T07:09:29;98826.06;;;7.75;100.00
53270;BME280;39159;45.634;9.420;2024-03-08T07:11:54;98819.81;;;7.75;100.00
53270;BME280;39159;45.634;9.420;2024-03-08T07:14:22;98835.00;;;7.76;100.00
53270;BME280;39159;45.634;9.420;2024-03-08T07:16:47;98830.59;;;7.80;100.00
53270;BME280;39159;45.634;9.420;2024-03-08T07:19:13;98832.81;;;7.78;100.00
53270;BME280;39159;45.634;9.420;2024-03-08T07:21:38;98839.06;;;7.78;100.00
53270;BME280;39159;45.634;9.420;2024-03-08T07:24:04;98840.94;;;7.78;100.00
53270;BME280;39159;45.634;9.420;2024-03-08T07:26:42;98833.47;;;7.70;100.00
53270;BME280;39159;45.634;9.420;2024-03-08T07:29:07;98837.22;;;7.74;100.00
53270;BME280;39159;45.634;9.420;2024-03-08T07:31:33;98837.97;;;7.79;100.00
53270;BME280;39159;45.634;9.420;2024-03-08T07:34:31;98842.91;;;7.96;100.00
53270;BME280;39159;45.634;9.420;2024-03-08T07:36:57;98843.09;;;8.00;100.00
53270;BME280;39159;45.634;9.420;2024-03-08T07:39:23;98844.66;;;8.06;100.00
53270;BME280;39159;45.634;9.420;2024-03-08T07:41:49;98848.84;;;7.98;100.00
53270;BME280;39159;45.634;9.420;2024-03-08T07:44:14;98849.28;;;8.05;100.00
53270;BME280;39159;45.634;9.420;2024-03-08T07:46:40;98837.38;;;8.01;100.00
53270;BME280;39159;45.634;9.420;2024-03-08T07:49:06;98843.63;;;8.21;100.00
53270;BME280;39159;45.634;9.420;2024-03-08T07:51:32;98841.03;;;8.48;100.00
53270;BME280;39159;45.634;9.420;2024-03-08T07:53:59;98840.56;;;8.60;100.00
53270;BME280;39159;45.634;9.420;2024-03-08T07:56:25;98846.84;;;8.61;100.00
53270;BME280;39159;45.634;9.420;2024-03-08T07:58:50;98847.56;;;8.66;100.00
53270;BME280;39159;45.634;9.420;2024-03-08T08:01:17;98849.81;;;8.78;100.00
53270;BME280;39159;45.634;9.420;2024-03-08T08:03:43;98850.53;;;8.84;100.00
53270;BME280;39159;45.634;9.420;2024-03-08T08:06:08;98855.03;;;8.75;100.00
53270;BME280;39159;45.634;9.420;2024-03-08T08:08:33;98847.81;;;8.84;100.00
53270;BME280;39159;45.634;9.420;2024-03-08T08:10:59;98852.94;;;8.71;100.00
53270;BME280;39159;45.634;9.420;2024-03-08T08:13:24;98854.00;;;8.70;100.00
53270;BME280;39159;45.634;9.420;2024-03-08T08:15:50;98844.19;;;8.88;100.00
53270;BME280;39159;45.634;9.420;2024-03-08T08:18:15;98856.31;;;8.96;100.00
53270;BME280;39159;45.634;9.420;2024-03-08T08:20:41;98852.56;;;8.92;100.00
53270;BME280;39159;45.634;9.420;2024-03-08T08:23:06;98850.94;;;8.91;100.00
53270;BME280;39159;45.634;9.420;2024-03-08T08:25:31;98854.91;;;8.99;100.00
53270;BME280;39159;45.634;9.420;2024-03-08T08:27:59;98853.19;;;9.03;100.00
53270;BME280;39159;45.634;9.420;2024-03-08T08:30:25;98850.94;;;8.91;100.00
53270;BME280;39159;45.634;9.420;2024-03-08T08:32:50;98851.19;;;9.08;100.00
53270;BME280;39159;45.634;9.420;2024-03-08T08:35:16;98852.19;;;9.12;100.00
53270;BME280;39159;45.634;9.420;2024-03-08T08:37:43;98853.09;;;9.22;100.00
53270;BME280;39159;45.634;9.420;2024-03-08T08:40:09;98846.75;;;9.26;100.00
53270;BME280;39159;45.634;9.420;2024-03-08T08:42:38;98850.91;;;9.24;100.00
53270;BME280;39159;45.634;9.420;2024-03-08T08:45:05;98848.97;;;9.38;100.00
53270;BME280;39159;45.634;9.420;2024-03-08T08:47:33;98846.47;;;9.28;100.00
53270;BME280;39159;45.634;9.420;2024-03-08T08:49:59;98847.75;;;9.17;100.00
53270;BME280;39159;45.634;9.420;2024-03-08T08:52:26;98850.78;;;9.01;100.00
53270;BME280;39159;45.634;9.420;2024-03-08T08:54:51;98852.56;;;8.92;100.00
53270;BME280;39159;45.634;9.420;2024-03-08T08:57:16;98852.47;;;9.11;100.00
53270;BME280;39159;45.634;9.420;2024-03-08T08:59:42;98856.84;;;9.12;100.00
53270;BME280;39159;45.634;9.420;2024-03-08T09:02:08;98850.69;;;9.20;100.00
53270;BME280;39159;45.634;9.420;2024-03-08T09:04:34;98851.19;;;9.22;100.00
53270;BME280;39159;45.634;9.420;2024-03-08T09:07:01;98845.56;;;9.32;100.00
53270;BME280;39159;45.634;9.420;2024-03-08T09:09:26;98847.56;;;9.27;100.00
53270;BME280;39159;45.634;9.420;2024-03-08T09:11:52;98850.78;;;9.29;100.00
53270;BME280;39159;45.634;9.420;2024-03-08T09:14:19;98843.13;;;9.17;100.00
53270;BME280;39159;45.634;9.420;2024-03-08T09:16:45;98847.66;;;9.22;100.00
53270;BME280;39159;45.634;9.420;2024-03-08T09:19:12;98846.97;;;9.44;100.00
53270;BME280;39159;45.634;9.420;2024-03-08T09:21:38;98841.53;;;9.44;100.00
53270;BME280;39159;45.634;9.420;2024-03-08T09:24:05;98843.53;;;9.52;100.00
53270;BME280;39159;45.634;9.420;2024-03-08T09:26:32;98839.91;;;9.43;100.00
53270;BME280;39159;45.634;9.420;2024-03-08T09:28:58;98847.16;;;9.61;100.00
53270;BME280;39159;45.634;9.420;2024-03-08T09:31:24;98844.44;;;9.47;100.00
53270;BME280;39159;45.634;9.420;2024-03-08T09:33:51;98845.25;;;9.48;100.00
53270;BME280;39159;45.634;9.420;2024-03-08T09:36:17;98844.53;;;9.70;100.00
53270;BME280;39159;45.634;9.420;2024-03-08T09:38:42;98844.50;;;9.84;100.00
53270;BME280;39159;45.634;9.420;2024-03-08T09:41:08;98848.41;;;9.91;100.00
53270;BME280;39159;45.634;9.420;2024-03-08T09:43:35;98847.09;;;10.03;100.00
53270;BME280;39159;45.634;9.420;2024-03-08T09:46:03;98845.88;;;10.09;100.00
53270;BME280;39159;45.634;9.420;2024-03-08T09:48:28;98844.50;;;10.20;100.00
53270;BME280;39159;45.634;9.420;2024-03-08T09:50:54;98841.59;;;10.30;100.00
53270;BME280;39159;45.634;9.420;2024-03-08T09:53:20;98846.63;;;10.37;100.00
53270;BME280;39159;45.634;9.420;2024-03-08T09:55:47;98850.97;;;10.61;100.00
53270;BME280;39159;45.634;9.420;2024-03-08T09:58:15;98848.56;;;10.59;100.00
53270;BME280;39159;45.634;9.420;2024-03-08T10:00:46;98850.47;;;10.36;100.00
53270;BME280;39159;45.634;9.420;2024-03-08T10:03:13;98842.16;;;10.64;100.00
53270;BME280;39159;45.634;9.420;2024-03-08T10:05:40;98851.63;;;10.89;100.00
53270;BME280;39159;45.634;9.420;2024-03-08T10:08:06;98849.41;;;10.68;100.00
53270;BME280;39159;45.634;9.420;2024-03-08T10:10:34;98850.91;;;10.74;100.00
53270;BME280;39159;45.634;9.420;2024-03-08T10:12:59;98847.69;;;10.50;100.00
53270;BME280;39159;45.634;9.420;2024-03-08T10:15:27;98848.78;;;10.49;100.00
53270;BME280;39159;45.634;9.420;2024-03-08T10:17:55;98851.06;;;10.33;100.00
53270;BME280;39159;45.634;9.420;2024-03-08T10:20:21;98847.41;;;10.37;100.00
53270;BME280;39159;45.634;9.420;2024-03-08T10:22:47;98844.00;;;10.18;100.00
53270;BME280;39159;45.634;9.420;2024-03-08T10:25:13;98840.06;;;10.24;100.00
53270;BME280;39159;45.634;9.420;2024-03-08T10:27:39;98837.13;;;10.34;100.00
53270;BME280;39159;45.634;9.420;2024-03-08T10:30:08;98840.03;;;10.38;100.00
53270;BME280;39159;45.634;9.420;2024-03-08T10:32:35;98832.78;;;10.33;100.00
53270;BME280;39159;45.634;9.420;2024-03-08T10:35:00;98840.16;;;10.33;100.00
53270;BME280;39159;45.634;9.420;2024-03-08T10:37:27;98836.44;;;10.29;100.00
53270;BME280;39159;45.634;9.420;2024-03-08T10:40:04;98835.50;;;10.33;100.00
53270;BME280;39159;45.634;9.420;2024-03-08T10:42:40;98837.75;;;10.17;100.00
53270;BME280;39159;45.634;9.420;2024-03-08T10:45:34;98831.72;;;10.07;100.00
53270;BME280;39159;45.634;9.420;2024-03-08T10:50:46;98834.59;;;10.24;100.00
53270;BME280;39159;45.634;9.420;2024-03-08T10:53:14;98821.88;;;10.33;100.00
53270;BME280;39159;45.634;9.420;2024-03-08T10:55:40;98835.41;;;10.39;100.00
53270;BME280;39159;45.634;9.420;2024-03-08T10:58:08;98833.81;;;10.24;100.00
53270;BME280;39159;45.634;9.420;2024-03-08T11:00:37;98835.16;;;10.12;100.00
53270;BME280;39159;45.634;9.420;2024-03-08T11:03:03;98835.72;;;10.37;100.00
53270;BME280;39159;45.634;9.420;2024-03-08T11:05:40;98835.97;;;10.49;100.00
53270;BME280;39159;45.634;9.420;2024-03-08T11:08:26;98829.25;;;10.55;100.00
53270;BME280;39159;45.634;9.420;2024-03-08T11:10:53;98830.56;;;10.58;100.00
53270;BME280;39159;45.634;9.420;2024-03-08T11:13:44;98829.75;;;10.57;100.00
53270;BME280;39159;45.634;9.420;2024-03-08T11:16:10;98825.59;;;10.60;100.00
53270;BME280;39159;45.634;9.420;2024-03-08T11:18:37;98816.25;;;10.52;100.00
53270;BME280;39159;45.634;9.420;2024-03-08T11:21:08;98824.72;;;10.73;100.00
53270;BME280;39159;45.634;9.420;2024-03-08T11:23:37;98820.84;;;10.97;100.00
53270;BME280;39159;45.634;9.420;2024-03-08T11:26:03;98814.28;;;11.07;100.00
53270;BME280;39159;45.634;9.420;2024-03-08T11:28:32;98814.44;;;11.02;100.00
53270;BME280;39159;45.634;9.420;2024-03-08T11:33:30;98808.00;;;11.46;100.00
53270;BME280;39159;45.634;9.420;2024-03-08T11:36:03;98806.53;;;11.40;100.00
53270;BME280;39159;45.634;9.420;2024-03-08T11:38:43;98804.03;;;11.61;100.00
53270;BME280;39159;45.634;9.420;2024-03-08T11:41:09;98803.69;;;11.62;100.00
53270;BME280;39159;45.634;9.420;2024-03-08T11:43:39;98794.91;;;11.17;100.00
53270;BME280;39159;45.634;9.420;2024-03-08T11:46:10;98790.47;;;11.30;100.00
53270;BME280;39159;45.634;9.420;2024-03-08T11:48:40;98789.34;;;11.39;100.00
53270;BME280;39159;45.634;9.420;2024-03-08T11:51:11;98791.13;;;11.44;100.00
53270;BME280;39159;45.634;9.420;2024-03-08T11:53:38;98783.22;;;11.25;100.00
53270;BME280;39159;45.634;9.420;2024-03-08T11:58:32;98797.97;;;11.24;100.00
53270;BME280;39159;45.634;9.420;2024-03-08T12:01:07;98778.13;;;11.01;100.00
53270;BME280;39159;45.634;9.420;2024-03-08T12:03:38;98777.69;;;11.08;100.00
53270;BME280;39159;45.634;9.420;2024-03-08T12:06:03;98780.06;;;11.01;100.00
53270;BME280;39159;45.634;9.420;2024-03-08T12:08:32;98774.59;;;11.09;100.00
53270;BME280;39159;45.634;9.420;2024-03-08T12:10:58;98769.91;;;10.92;100.00
53270;BME280;39159;45.634;9.420;2024-03-08T12:13:27;98766.19;;;10.88;100.00
53270;BME280;39159;45.634;9.420;2024-03-08T12:15:56;98772.53;;;10.75;100.00
53270;BME280;39159;45.634;9.420;2024-03-08T12:18:24;98758.38;;;10.42;100.00
53270;BME280;39159;45.634;9.420;2024-03-08T12:20:49;98771.59;;;10.48;100.00
53270;BME280;39159;45.634;9.420;2024-03-08T12:23:15;98760.53;;;10.53;100.00
53270;BME280;39159;45.634;9.420;2024-03-08T12:25:42;98770.25;;;10.68;100.00
53270;BME280;39159;45.634;9.420;2024-03-08T12:28:08;98764.44;;;10.61;100.00
53270;BME280;39159;45.634;9.420;2024-03-08T12:30:50;98757.75;;;10.67;100.00
53270;BME280;39159;45.634;9.420;2024-03-08T12:33:18;98753.69;;;10.65;100.00
53270;BME280;39159;45.634;9.420;2024-03-08T12:35:53;98760.72;;;10.88;100.00
53270;BME280;39159;45.634;9.420;2024-03-08T12:38:20;98758.00;;;10.88;100.00
53270;BME280;39159;45.634;9.420;2024-03-08T12:40:50;98756.13;;;10.66;100.00
53270;BME280;39159;45.634;9.420;2024-03-08T12:43:15;98758.31;;;10.55;100.00
53270;BME280;39159;45.634;9.420;2024-03-08T12:45:41;98755.31;;;10.66;100.00
53270;BME280;39159;45.634;9.420;2024-03-08T12:48:12;98757.84;;;10.62;100.00
53270;BME280;39159;45.634;9.420;2024-03-08T12:50:41;98753.13;;;10.45;100.00
53270;BME280;39159;45.634;9.420;2024-03-08T12:53:12;98750.84;;;10.39;100.00
53270;BME280;39159;45.634;9.420;2024-03-08T12:55:38;98747.41;;;10.33;100.00
53270;BME280;39159;45.634;9.420;2024-03-08T12:58:04;98748.41;;;10.37;100.00
53270;BME280;39159;45.634;9.420;2024-03-08T13:00:33;98742.22;;;10.23;100.00
53270;BME280;39159;45.634;9.420;2024-03-08T13:03:01;98732.97;;;10.32;100.00